createdAt,value
2022-10-23T00:02:45.843Z,78.30
2022-10-23T00:05:49.210Z,78.40
2022-10-23T00:08:53.681Z,78.40
2022-10-23T00:11:56.961Z,78.20
2022-10-23T00:14:59.971Z,78.30
2022-10-23T00:18:03.073Z,78.10
2022-10-23T00:21:08.314Z,78.20
2022-10-23T00:24:12.798Z,78.30
2022-10-23T00:27:15.815Z,78.30
2022-10-23T00:30:18.930Z,78.40
2022-10-23T00:33:21.969Z,78.40
2022-10-23T00:36:25.128Z,78.40
2022-10-23T00:39:29.822Z,78.50
2022-10-23T00:42:32.864Z,78.50
2022-10-23T00:45:36.123Z,78.90
2022-10-23T00:48:39.234Z,78.50
2022-10-23T00:51:46.313Z,78.60
2022-10-23T00:54:50.998Z,78.60
2022-10-23T00:57:54.586Z,78.80
2022-10-23T01:00:58.242Z,78.60
2022-10-23T01:04:03.110Z,78.60
2022-10-23T01:07:16.642Z,78.60
2022-10-23T01:10:32.655Z,78.70
2022-10-23T01:13:45.640Z,78.90
2022-10-23T01:17:01.463Z,78.70
2022-10-23T01:20:26.652Z,78.80
2022-10-23T01:23:53.789Z,78.80
2022-10-23T01:27:23.638Z,78.90
2022-10-23T01:30:27.415Z,79.00
2022-10-23T01:33:38.879Z,78.70
2022-10-23T01:36:47.914Z,78.70
2022-10-23T01:39:57.219Z,78.60
2022-10-23T01:43:10.721Z,79.00
2022-10-23T01:46:17.955Z,79.10
2022-10-23T01:49:23.976Z,79.10
2022-10-23T01:52:27.393Z,78.60
2022-10-23T01:55:32.407Z,78.50
2022-10-23T01:58:38.531Z,78.50
2022-10-23T02:01:46.474Z,78.50
2022-10-23T02:04:58.071Z,78.50
2022-10-23T02:08:02.893Z,78.50
2022-10-23T02:11:11.400Z,78.50
2022-10-23T02:14:25.032Z,78.50
2022-10-23T02:17:40.077Z,78.50
2022-10-23T02:20:49.062Z,78.50
2022-10-23T02:24:00.455Z,78.50
2022-10-23T02:27:11.514Z,78.50
2022-10-23T02:30:19.845Z,78.50
2022-10-23T02:33:24.635Z,78.40
2022-10-23T02:36:27.819Z,78.50
2022-10-23T02:39:31.531Z,78.50
2022-10-23T02:42:43.352Z,78.50
2022-10-23T02:46:00.395Z,78.40
2022-10-23T02:49:16.214Z,78.60
2022-10-23T02:52:29.551Z,78.50
2022-10-23T02:55:51.794Z,78.50
2022-10-23T02:59:06.502Z,78.40
2022-10-23T03:02:22.567Z,78.90
2022-10-23T03:05:31.355Z,78.70
2022-10-23T03:08:43.920Z,78.60
2022-10-23T03:11:46.914Z,78.60
2022-10-23T03:14:49.933Z,78.50
2022-10-23T03:17:54.820Z,78.50
2022-10-23T03:20:58.470Z,78.60
2022-10-23T03:24:01.495Z,78.50
2022-10-23T03:27:04.882Z,79.00
2022-10-23T03:30:09.782Z,78.50
2022-10-23T03:33:14.621Z,78.50
2022-10-23T03:36:17.642Z,78.50
2022-10-23T03:39:20.736Z,78.40
2022-10-23T03:42:23.798Z,78.50
2022-10-23T03:45:27.197Z,77.80
2022-10-23T03:48:32.570Z,78.30
2022-10-23T03:51:35.878Z,78.20
2022-10-23T03:54:39.137Z,78.20
2022-10-23T03:57:42.344Z,78.20
2022-10-23T04:00:45.419Z,78.20
2022-10-23T04:03:49.831Z,77.90
2022-10-23T04:06:52.912Z,78.00
2022-10-23T04:09:56.062Z,77.80
2022-10-23T04:12:59.215Z,78.10
2022-10-23T04:16:02.238Z,77.90
2022-10-23T04:19:07.037Z,77.40
2022-10-23T04:22:09.993Z,77.90
2022-10-23T04:25:13.127Z,77.90
2022-10-23T04:28:16.248Z,78.00
2022-10-23T04:31:19.560Z,77.90
2022-10-23T04:34:24.209Z,77.90
2022-10-23T04:37:28.027Z,77.90
2022-10-23T04:40:31.003Z,77.60
2022-10-23T04:43:34.000Z,77.40
2022-10-23T04:46:37.107Z,77.30
2022-10-23T04:49:41.471Z,77.10
2022-10-23T04:52:44.749Z,77.20
2022-10-23T04:55:51.707Z,77.10
2022-10-23T04:58:54.883Z,77.40
2022-10-23T05:01:57.978Z,77.60
2022-10-23T05:05:02.470Z,77.80
2022-10-23T05:08:05.712Z,78.10
2022-10-23T05:11:08.772Z,78.30
2022-10-23T05:14:11.734Z,78.20
2022-10-23T05:17:21.385Z,78.10
2022-10-23T05:20:31.490Z,77.90
2022-10-23T05:23:38.312Z,78.00
2022-10-23T05:26:41.432Z,77.90
2022-10-23T05:29:44.645Z,77.90
2022-10-23T05:32:47.983Z,77.80
2022-10-23T05:35:52.529Z,78.70
2022-10-23T05:38:56.204Z,78.10
2022-10-23T05:41:59.358Z,78.10
2022-10-23T05:45:02.500Z,77.50
2022-10-23T05:48:16.710Z,78.30
2022-10-23T05:51:23.244Z,78.40
2022-10-23T05:54:26.386Z,79.10
2022-10-23T05:57:29.567Z,79.00
2022-10-23T06:00:33.086Z,78.70
2022-10-23T06:03:36.511Z,78.70
2022-10-23T06:06:40.816Z,78.60
2022-10-23T06:09:43.898Z,79.00
2022-10-23T06:12:46.914Z,79.00
2022-10-23T06:15:50.129Z,79.10
2022-10-23T06:18:53.424Z,79.30
2022-10-23T06:21:57.874Z,79.20
2022-10-23T06:25:00.903Z,79.10
2022-10-23T06:28:04.005Z,78.90
2022-10-23T06:31:08.355Z,79.00
2022-10-23T06:34:13.667Z,79.10
2022-10-23T06:37:18.118Z,79.20
2022-10-23T06:40:21.120Z,79.20
2022-10-23T06:43:24.321Z,79.20
2022-10-23T06:46:29.882Z,79.10
2022-10-23T06:49:32.945Z,79.20
2022-10-23T06:52:48.239Z,79.30
2022-10-23T06:55:54.538Z,79.30
2022-10-23T06:58:58.547Z,79.10
2022-10-23T07:02:01.718Z,79.10
2022-10-23T07:05:08.716Z,79.00
2022-10-23T07:08:15.995Z,79.00
2022-10-23T07:11:19.259Z,79.00
2022-10-23T07:14:23.565Z,79.00
2022-10-23T07:17:26.884Z,78.90
2022-10-23T07:20:30.037Z,78.70
2022-10-23T07:23:34.536Z,78.40
2022-10-23T07:26:37.622Z,78.40
2022-10-23T07:29:40.752Z,78.30
2022-10-23T07:32:45.009Z,78.20
2022-10-23T07:35:48.361Z,78.40
2022-10-23T07:38:53.285Z,78.60
2022-10-23T07:41:56.511Z,78.60
2022-10-23T07:44:59.615Z,78.80
2022-10-23T07:48:02.628Z,78.70
2022-10-23T07:51:10.497Z,79.00
2022-10-23T07:54:14.995Z,79.00
2022-10-23T07:57:18.031Z,78.90
2022-10-23T08:00:21.266Z,78.90
2022-10-23T08:03:25.387Z,79.00
2022-10-23T08:06:28.484Z,79.00
2022-10-23T08:09:34.492Z,78.90
2022-10-23T08:12:39.568Z,78.60
2022-10-23T08:15:45.055Z,78.50
2022-10-23T08:18:49.485Z,78.40
2022-10-23T08:21:54.749Z,78.60
2022-10-23T08:24:59.117Z,78.00
2022-10-23T08:28:05.483Z,77.80
2022-10-23T08:31:12.372Z,78.10
2022-10-23T08:34:16.333Z,78.10
2022-10-23T08:37:19.393Z,78.50
2022-10-23T08:40:26.613Z,78.30
2022-10-23T08:43:38.551Z,78.60
2022-10-23T08:46:47.081Z,78.10
2022-10-23T08:49:56.308Z,78.30
2022-10-23T08:53:10.276Z,78.20
2022-10-23T08:56:22.348Z,77.80
2022-10-23T08:59:33.109Z,77.40
2022-10-23T09:02:43.609Z,76.90
2022-10-23T09:06:07.557Z,76.90
2022-10-23T09:09:51.322Z,77.30
2022-10-23T09:13:02.239Z,76.60
2022-10-23T09:16:22.653Z,76.80
2022-10-23T09:19:29.474Z,76.40
2022-10-23T09:22:32.711Z,76.80
2022-10-23T09:25:39.843Z,76.90
2022-10-23T09:28:49.596Z,76.60
2022-10-23T09:31:54.673Z,76.10
2022-10-23T09:34:57.995Z,76.20
2022-10-23T09:38:01.132Z,76.20
2022-10-23T09:41:08.514Z,76.10
2022-10-23T09:44:22.086Z,75.90
2022-10-23T09:47:28.117Z,75.20
2022-10-23T09:50:31.438Z,75.60
2022-10-23T09:53:38.721Z,75.60
2022-10-23T10:00:02.352Z,75.40
2022-10-23T10:03:08.071Z,75.20
2022-10-23T10:06:25.755Z,75.30
2022-10-23T10:09:29.243Z,74.60
2022-10-23T10:12:47.829Z,75.10
2022-10-23T10:15:59.157Z,74.50
2022-10-23T10:19:13.686Z,74.50
2022-10-23T10:22:27.827Z,74.30
2022-10-23T10:25:38.639Z,74.00
2022-10-23T10:29:06.321Z,74.80
2022-10-23T10:32:32.239Z,74.00
2022-10-23T10:35:43.821Z,73.90
2022-10-23T10:38:51.873Z,73.60
2022-10-23T10:42:19.679Z,73.70
2022-10-23T10:45:35.272Z,73.00
2022-10-23T10:48:57.454Z,73.00
2022-10-23T10:52:14.109Z,71.90
2022-10-23T10:55:29.105Z,71.70
2022-10-23T10:58:43.033Z,71.10
2022-10-23T11:01:54.517Z,70.50
2022-10-23T11:05:15.960Z,70.30
2022-10-23T11:08:27.946Z,69.70
2022-10-23T11:11:40.584Z,70.10
2022-10-23T11:14:44.562Z,69.70
2022-10-23T11:17:52.196Z,70.20
2022-10-23T11:21:13.499Z,70.00
2022-10-23T11:25:13.242Z,69.10
2022-10-23T11:28:36.064Z,68.30
2022-10-23T11:31:46.571Z,68.70
2022-10-23T11:35:21.182Z,69.00
2022-10-23T11:38:31.567Z,68.00
2022-10-23T11:41:35.363Z,68.50
2022-10-23T11:44:45.398Z,68.90
2022-10-23T11:47:59.732Z,68.50
2022-10-23T11:51:05.303Z,67.70
2022-10-23T11:54:27.195Z,68.20
2022-10-23T12:00:40.955Z,68.90
2022-10-23T12:03:53.673Z,68.90
2022-10-23T12:07:01.332Z,68.60
2022-10-23T12:10:18.900Z,68.90
2022-10-23T12:13:45.253Z,68.60
2022-10-23T12:16:48.485Z,68.40
2022-10-23T12:19:54.109Z,68.70
2022-10-23T12:23:24.597Z,68.30
2022-10-23T12:26:58.653Z,67.50
2022-10-23T12:30:23.927Z,67.10
2022-10-23T12:33:36.128Z,67.80
2022-10-23T12:36:53.994Z,67.80
2022-10-23T12:39:59.552Z,67.20
2022-10-23T12:43:04.710Z,67.80
2022-10-23T12:46:29.449Z,67.80
2022-10-23T12:49:35.487Z,67.70
2022-10-23T12:52:39.654Z,68.00
2022-10-23T12:55:50.982Z,68.10
2022-10-23T12:59:00.604Z,67.80
2022-10-23T13:02:15.344Z,68.00
2022-10-23T13:05:20.946Z,68.10
2022-10-23T13:08:29.405Z,67.80
2022-10-23T13:11:33.340Z,67.80
2022-10-23T13:14:44.568Z,67.40
2022-10-23T13:18:00.867Z,66.80
2022-10-23T13:21:04.057Z,67.00
2022-10-23T13:24:21.040Z,67.10
2022-10-23T13:27:32.985Z,66.40
2022-10-23T13:30:40.226Z,66.90
2022-10-23T13:33:47.008Z,67.30
2022-10-23T13:37:01.379Z,67.20
2022-10-23T13:40:07.695Z,66.70
2022-10-23T13:43:18.962Z,66.60
2022-10-23T13:46:25.591Z,67.30
2022-10-23T13:49:28.866Z,67.20
2022-10-23T13:52:34.883Z,67.50
2022-10-23T13:55:41.784Z,67.70
2022-10-23T13:58:44.956Z,67.90
2022-10-23T14:01:51.544Z,67.90
2022-10-23T14:04:56.472Z,68.10
2022-10-23T14:07:59.651Z,68.20
2022-10-23T14:11:03.093Z,68.10
2022-10-23T14:14:09.947Z,68.20
2022-10-23T14:17:14.489Z,68.00
2022-10-23T14:20:19.200Z,67.90
2022-10-23T14:23:23.952Z,67.90
2022-10-23T14:26:30.360Z,67.90
2022-10-23T14:29:34.384Z,67.80
2022-10-23T14:32:39.388Z,67.60
2022-10-23T14:35:43.385Z,67.50
2022-10-23T14:38:46.604Z,67.70
2022-10-23T14:41:51.616Z,67.60
2022-10-23T14:44:54.905Z,67.50
2022-10-23T14:48:00.956Z,67.40
2022-10-23T14:51:06.409Z,67.40
2022-10-23T14:55:15.140Z,67.50
2022-10-23T14:58:37.348Z,67.20
2022-10-23T15:01:45.848Z,67.60
2022-10-23T15:04:55.611Z,67.70
2022-10-23T15:07:59.027Z,67.80
2022-10-23T15:11:05.712Z,68.10
2022-10-23T15:14:29.902Z,67.90
2022-10-23T15:17:34.054Z,68.30
2022-10-23T15:20:38.773Z,68.30
2022-10-23T15:23:44.118Z,68.50
2022-10-23T15:26:47.492Z,68.60
2022-10-23T15:30:11.070Z,68.70
2022-10-23T15:33:34.247Z,69.00
2022-10-23T15:37:00.454Z,69.00
2022-10-23T15:44:57.365Z,69.60
2022-10-23T15:53:34.128Z,69.90
2022-10-23T15:56:58.739Z,69.70
2022-10-23T16:00:11.200Z,69.90
2022-10-23T16:03:14.082Z,70.20
2022-10-23T16:06:18.814Z,70.50
2022-10-23T16:09:23.004Z,70.70
2022-10-23T16:12:26.037Z,71.00
2022-10-23T16:15:28.815Z,71.60
2022-10-23T16:18:31.637Z,71.10
2022-10-23T16:21:37.097Z,71.40
2022-10-23T16:24:41.465Z,71.80
2022-10-23T16:27:44.735Z,71.90
2022-10-23T16:30:47.868Z,72.00
2022-10-23T16:33:52.706Z,72.20
2022-10-23T16:40:30.512Z,72.50
2022-10-23T16:43:40.412Z,73.20
2022-10-23T16:46:43.264Z,72.80
2022-10-23T16:49:46.079Z,73.00
2022-10-23T16:52:50.909Z,73.30
2022-10-23T16:55:58.667Z,73.70
2022-10-23T16:59:01.504Z,74.20
2022-10-23T17:02:04.771Z,74.50
2022-10-23T17:05:08.489Z,75.20
2022-10-23T17:08:11.284Z,75.50
2022-10-23T17:11:18.121Z,75.80
2022-10-23T17:14:39.817Z,76.30
2022-10-23T17:24:28.427Z,77.20
2022-10-23T17:28:25.697Z,77.10
2022-10-23T17:31:50.789Z,77.10
2022-10-23T17:35:13.313Z,76.10
2022-10-23T17:38:57.199Z,76.20
2022-10-23T17:42:03.447Z,77.00
2022-10-23T17:45:12.437Z,76.40
2022-10-23T17:48:18.250Z,76.60
2022-10-23T17:51:33.702Z,76.60
2022-10-23T17:54:38.314Z,76.80
2022-10-23T17:57:42.999Z,77.40
2022-10-23T18:00:48.697Z,76.50
2022-10-23T18:03:53.443Z,76.60
2022-10-23T18:06:57.874Z,76.50
2022-10-23T18:10:01.704Z,76.20
2022-10-23T18:13:26.499Z,76.40
2022-10-23T18:16:36.137Z,76.40
2022-10-23T18:19:40.254Z,76.30
2022-10-23T18:22:44.053Z,76.30
2022-10-23T18:25:48.112Z,76.10
2022-10-23T18:28:55.763Z,76.10
2022-10-23T18:32:01.855Z,76.10
2022-10-23T18:35:07.801Z,76.00
2022-10-23T18:38:13.313Z,75.90
2022-10-23T18:41:18.186Z,76.00
2022-10-23T18:44:25.455Z,76.10
2022-10-23T18:47:31.814Z,76.00
2022-10-23T18:50:38.523Z,76.10
2022-10-23T18:56:57.570Z,76.10
2022-10-23T19:00:00.965Z,76.10
2022-10-23T19:03:06.392Z,76.30
2022-10-23T19:06:10.303Z,76.30
2022-10-23T19:09:14.798Z,76.20
2022-10-23T19:12:18.719Z,76.20
2022-10-23T19:15:22.074Z,76.10
2022-10-23T19:18:26.605Z,76.20
2022-10-23T19:21:37.714Z,76.10
2022-10-23T19:24:46.402Z,76.00
2022-10-23T19:27:50.241Z,76.50
2022-10-23T19:30:53.330Z,76.20
2022-10-23T19:33:57.795Z,76.20
2022-10-23T19:37:01.018Z,76.30
2022-10-23T19:40:06.703Z,76.30
2022-10-23T19:43:09.932Z,76.40
2022-10-23T19:46:14.278Z,76.50
2022-10-23T19:49:18.914Z,76.70
2022-10-23T19:52:22.674Z,77.10
2022-10-23T19:55:25.732Z,76.50
2022-10-23T19:58:28.833Z,76.70
2022-10-23T20:01:32.295Z,76.90
2022-10-23T20:04:36.930Z,77.10
2022-10-23T20:07:40.256Z,77.30
2022-10-23T20:10:46.491Z,77.40
2022-10-23T20:13:51.015Z,77.60
2022-10-23T20:16:55.995Z,77.80
2022-10-23T20:20:00.687Z,77.90
2022-10-23T20:23:03.747Z,78.00
2022-10-23T20:26:08.601Z,78.00
2022-10-23T20:29:11.814Z,77.90
2022-10-23T20:32:15.456Z,77.90
2022-10-23T20:35:20.005Z,77.80
2022-10-23T20:38:23.408Z,77.80
2022-10-23T20:41:28.822Z,77.80
2022-10-23T20:44:32.226Z,77.80
2022-10-23T20:47:35.316Z,77.80
2022-10-23T20:50:39.843Z,78.00
2022-10-23T20:53:44.689Z,78.10
2022-10-23T20:56:47.758Z,78.10
2022-10-23T20:59:50.743Z,78.10
2022-10-23T21:02:54.012Z,78.20
2022-10-23T21:06:05.079Z,78.20
2022-10-23T21:12:17.275Z,78.10
2022-10-23T21:15:20.675Z,78.10
2022-10-23T21:18:45.095Z,78.10
2022-10-23T21:21:49.724Z,78.20
2022-10-23T21:24:55.005Z,78.90
2022-10-23T21:27:58.131Z,78.10
2022-10-23T21:31:04.740Z,78.20
2022-10-23T21:34:07.892Z,78.30
2022-10-23T21:37:13.926Z,78.30
2022-10-23T21:40:17.816Z,78.20
2022-10-23T21:43:20.953Z,78.10
2022-10-23T21:46:26.416Z,78.00
2022-10-23T21:49:29.666Z,78.10
2022-10-23T21:52:34.317Z,78.30
2022-10-23T21:55:37.517Z,78.10
2022-10-23T21:58:40.528Z,78.20
2022-10-23T22:01:46.195Z,78.30
2022-10-23T22:04:49.296Z,78.40
2022-10-23T22:07:53.651Z,78.40
2022-10-23T22:10:56.757Z,78.30
2022-10-23T22:14:00.692Z,78.80
2022-10-23T22:17:03.945Z,79.00
2022-10-23T22:20:08.941Z,79.10
2022-10-23T22:23:13.613Z,79.20
2022-10-23T22:26:25.303Z,79.30
2022-10-23T22:29:30.352Z,79.60
2022-10-23T22:32:33.579Z,79.50
2022-10-23T22:35:36.626Z,79.70
2022-10-23T22:38:41.706Z,80.10
2022-10-23T22:41:45.056Z,80.00
2022-10-23T22:44:48.154Z,80.10
2022-10-23T22:47:51.274Z,80.40
2022-10-23T22:50:54.447Z,80.20
2022-10-23T22:54:00.572Z,80.70
2022-10-23T22:57:03.780Z,80.20
2022-10-23T23:00:09.070Z,80.00
2022-10-23T23:03:12.667Z,80.10
2022-10-23T23:06:16.700Z,80.00
2022-10-23T23:09:21.126Z,80.00
2022-10-23T23:12:24.166Z,80.00
2022-10-23T23:15:27.889Z,79.80
2022-10-23T23:18:31.289Z,79.80
2022-10-23T23:21:34.659Z,79.80
2022-10-23T23:24:40.163Z,79.70
2022-10-23T23:27:44.052Z,79.70
2022-10-23T23:30:48.329Z,79.70
2022-10-23T23:33:53.022Z,79.80
2022-10-23T23:36:56.170Z,79.80
2022-10-23T23:40:00.601Z,79.90
2022-10-23T23:43:03.837Z,80.10
2022-10-23T23:46:07.070Z,80.20
2022-10-23T23:49:10.053Z,80.30
2022-10-23T23:52:13.103Z,80.50
2022-10-23T23:55:17.720Z,80.80
2022-10-23T23:58:20.809Z,80.90
